CPA531 RJGG-RCTP
Flight info
| Callsign | CPA531 |
|---|---|
| Flight time | N/A |
| Altitude | 40000 |
| Route | ISE3 KEC Y24 KOSHI Y50 IGMON A1 DRAKE DRAKE1A |
| Aircraft | A359/H-SDE2E3GHIJ1J3J4J5LM1ORWXY/LB1D1 |
Departure
| Time | 2026-05-05 19:49 |
|---|---|
| Airport | Chubu Centrair International Airport (RJGG) |
Arrival
| Time | N/A |
|---|---|
| Airport | Taiwan Taoyuan International Airport (RCTP) |
| Time | Latitude | Longitude | Altitude | Speed | Heading |
|---|---|---|---|---|---|
| 2026-05-05 19:30 | 34.85789 | 136.81172 | 34 ft | 0 kts | 349° |
| 2026-05-05 19:36 | 34.85775 | 136.81175 | 33 ft | 4 kts | 349° |
| 2026-05-05 19:36 | 34.85749 | 136.81181 | 32 ft | 4 kts | 349° |
| 2026-05-05 19:37 | 34.85725 | 136.81187 | 32 ft | 4 kts | 351° |
| 2026-05-05 19:37 | 34.85702 | 136.81189 | 33 ft | 4 kts | 19° |
| 2026-05-05 19:37 | 34.85686 | 136.81179 | 33 ft | 4 kts | 63° |
| 2026-05-05 19:37 | 34.85680 | 136.81151 | 34 ft | 4 kts | 84° |
| 2026-05-05 19:38 | 34.85678 | 136.81128 | 34 ft | 1 kts | 79° |
| 2026-05-05 19:38 | 34.85677 | 136.81124 | 34 ft | 0 kts | 79° |
| 2026-05-05 19:44 | 34.85678 | 136.81127 | 34 ft | 3 kts | 79° |
| 2026-05-05 19:44 | 34.85692 | 136.81220 | 34 ft | 15 kts | 82° |
| 2026-05-05 19:44 | 34.85626 | 136.81277 | 34 ft | 14 kts | 168° |
| 2026-05-05 19:45 | 34.85518 | 136.81303 | 34 ft | 17 kts | 169° |
| 2026-05-05 19:45 | 34.85386 | 136.81334 | 34 ft | 21 kts | 169° |
| 2026-05-05 19:45 | 34.85233 | 136.81371 | 34 ft | 23 kts | 169° |
| 2026-05-05 19:45 | 34.85066 | 136.81409 | 34 ft | 25 kts | 169° |
| 2026-05-05 19:46 | 34.84898 | 136.81449 | 34 ft | 17 kts | 169° |
| 2026-05-05 19:46 | 34.84844 | 136.81370 | 34 ft | 15 kts | 258° |
| 2026-05-05 19:46 | 34.84822 | 136.81236 | 34 ft | 18 kts | 259° |
| 2026-05-05 19:46 | 34.84775 | 136.81145 | 34 ft | 8 kts | 178° |
| 2026-05-05 19:47 | 34.84704 | 136.81166 | 34 ft | 13 kts | 167° |
| 2026-05-05 19:47 | 34.84605 | 136.81190 | 34 ft | 16 kts | 169° |
| 2026-05-05 19:47 | 34.84487 | 136.81218 | 34 ft | 18 kts | 168° |
| 2026-05-05 19:47 | 34.84373 | 136.81224 | 34 ft | 14 kts | 213° |
| 2026-05-05 19:48 | 34.84339 | 136.81104 | 33 ft | 17 kts | 259° |
| 2026-05-05 19:48 | 34.84315 | 136.80951 | 30 ft | 16 kts | 263° |
| 2026-05-05 19:48 | 34.84389 | 136.80883 | 31 ft | 15 kts | 348° |
| 2026-05-05 19:48 | 34.84606 | 136.80832 | 32 ft | 64 kts | 349° |
| 2026-05-05 19:49 | 34.85286 | 136.80670 | 32 ft | 134 kts | 349° |
| 2026-05-05 19:49 | 34.85983 | 136.80501 | 51 ft | 171 kts | 350° |
| 2026-05-05 19:49 | 34.87536 | 136.80013 | 1047 ft | 174 kts | 334° |
| 2026-05-05 19:49 | 34.88346 | 136.78883 | 1590 ft | 192 kts | 290° |
| 2026-05-05 19:50 | 34.88390 | 136.77188 | 1911 ft | 213 kts | 250° |
| 2026-05-05 19:50 | 34.87610 | 136.75576 | 2254 ft | 236 kts | 220° |
| 2026-05-05 19:50 | 34.86289 | 136.74181 | 2650 ft | 261 kts | 212° |
| 2026-05-05 19:50 | 34.84811 | 136.72863 | 3529 ft | 265 kts | 213° |
| 2026-05-05 19:51 | 34.83267 | 136.71667 | 4523 ft | 263 kts | 200° |
| 2026-05-05 19:51 | 34.81503 | 136.71268 | 5444 ft | 255 kts | 176° |
| 2026-05-05 19:51 | 34.79754 | 136.71656 | 6149 ft | 257 kts | 165° |
| 2026-05-05 19:51 | 34.78020 | 136.72182 | 6910 ft | 257 kts | 165° |
| 2026-05-05 19:52 | 34.76240 | 136.72532 | 7549 ft | 261 kts | 178° |
| 2026-05-05 19:52 | 34.74448 | 136.72302 | 8203 ft | 265 kts | 189° |
| 2026-05-05 19:52 | 34.72623 | 136.71864 | 8862 ft | 268 kts | 191° |
| 2026-05-05 19:52 | 34.71664 | 136.71620 | 9224 ft | 269 kts | 191° |
| 2026-05-05 19:53 | 34.69773 | 136.71139 | 9926 ft | 271 kts | 192° |
| 2026-05-05 19:53 | 34.67898 | 136.70667 | 10372 ft | 282 kts | 192° |
| 2026-05-05 19:53 | 34.65924 | 136.70174 | 10649 ft | 297 kts | 192° |
| 2026-05-05 19:53 | 34.63847 | 136.69659 | 10910 ft | 311 kts | 192° |
| 2026-05-05 19:54 | 34.61684 | 136.69122 | 11165 ft | 324 kts | 192° |
| 2026-05-05 19:54 | 34.59439 | 136.68563 | 11479 ft | 333 kts | 192° |
| 2026-05-05 19:54 | 34.57147 | 136.67994 | 11909 ft | 339 kts | 192° |
| 2026-05-05 19:54 | 34.54823 | 136.67426 | 12373 ft | 343 kts | 192° |
| 2026-05-05 19:55 | 34.52464 | 136.66847 | 12854 ft | 347 kts | 192° |
| 2026-05-05 19:55 | 34.50080 | 136.66262 | 13337 ft | 351 kts | 192° |
| 2026-05-05 19:55 | 34.47703 | 136.65678 | 13813 ft | 354 kts | 192° |
| 2026-05-05 19:55 | 34.45268 | 136.65080 | 14262 ft | 358 kts | 192° |
| 2026-05-05 19:56 | 34.42828 | 136.64481 | 14732 ft | 359 kts | 192° |
| 2026-05-05 19:56 | 34.40369 | 136.63877 | 15234 ft | 360 kts | 192° |
| 2026-05-05 19:56 | 34.37904 | 136.63272 | 15767 ft | 360 kts | 193° |
| 2026-05-05 19:56 | 34.35444 | 136.62669 | 16324 ft | 360 kts | 193° |
| 2026-05-05 19:57 | 34.32985 | 136.62065 | 16820 ft | 361 kts | 193° |
| 2026-05-05 19:57 | 34.31358 | 136.61665 | 17154 ft | 361 kts | 194° |
| 2026-05-05 19:57 | 34.28068 | 136.60861 | 17860 ft | 361 kts | 194° |
| 2026-05-05 19:57 | 34.25604 | 136.60260 | 18387 ft | 361 kts | 194° |
| 2026-05-05 19:58 | 34.23144 | 136.59658 | 18846 ft | 361 kts | 195° |
| 2026-05-05 19:58 | 34.20700 | 136.58957 | 19242 ft | 360 kts | 200° |
| 2026-05-05 19:58 | 34.19157 | 136.58251 | 19491 ft | 359 kts | 207° |
| 2026-05-05 19:58 | 34.17022 | 136.56705 | 19881 ft | 357 kts | 219° |
| 2026-05-05 19:59 | 34.14531 | 136.54104 | 20400 ft | 358 kts | 223° |
| 2026-05-05 19:59 | 34.12683 | 136.52079 | 20784 ft | 359 kts | 223° |
| 2026-05-05 19:59 | 34.10826 | 136.50056 | 21156 ft | 361 kts | 223° |
| 2026-05-05 19:59 | 34.08958 | 136.48032 | 21519 ft | 362 kts | 223° |
| 2026-05-05 20:00 | 34.07710 | 136.46681 | 21773 ft | 363 kts | 223° |
| 2026-05-05 20:00 | 34.05827 | 136.44646 | 22133 ft | 364 kts | 223° |
| 2026-05-05 20:00 | 34.03934 | 136.42604 | 22482 ft | 366 kts | 223° |
| 2026-05-05 20:00 | 34.02029 | 136.40551 | 22833 ft | 367 kts | 224° |
| 2026-05-05 20:01 | 34.00125 | 136.38500 | 23167 ft | 369 kts | 224° |
| 2026-05-05 20:01 | 33.98203 | 136.36432 | 23513 ft | 370 kts | 224° |
| 2026-05-05 20:01 | 33.96273 | 136.34357 | 23838 ft | 372 kts | 224° |
| 2026-05-05 20:01 | 33.94345 | 136.32283 | 24141 ft | 372 kts | 224° |
| 2026-05-05 20:02 | 33.92411 | 136.30207 | 24469 ft | 372 kts | 224° |
| 2026-05-05 20:02 | 33.90481 | 136.28135 | 24817 ft | 371 kts | 225° |
| 2026-05-05 20:02 | 33.88554 | 136.26069 | 25151 ft | 371 kts | 225° |
| 2026-05-05 20:02 | 33.86637 | 136.24014 | 25486 ft | 371 kts | 225° |
| 2026-05-05 20:03 | 33.84713 | 136.21952 | 25837 ft | 370 kts | 225° |
| 2026-05-05 20:03 | 33.82786 | 136.19889 | 26165 ft | 370 kts | 225° |
| 2026-05-05 20:03 | 33.80881 | 136.17850 | 26489 ft | 371 kts | 226° |
| 2026-05-05 20:03 | 33.78956 | 136.15792 | 26830 ft | 371 kts | 226° |
| 2026-05-05 20:04 | 33.77028 | 136.13732 | 27176 ft | 371 kts | 226° |
| 2026-05-05 20:04 | 33.75098 | 136.11670 | 27532 ft | 371 kts | 226° |
| 2026-05-05 20:04 | 33.73164 | 136.09606 | 27892 ft | 372 kts | 226° |
| 2026-05-05 20:04 | 33.71230 | 136.07543 | 28265 ft | 372 kts | 226° |
| 2026-05-05 20:05 | 33.69298 | 136.05484 | 28656 ft | 372 kts | 226° |
| 2026-05-05 20:05 | 33.67370 | 136.03430 | 29037 ft | 372 kts | 226° |
| 2026-05-05 20:05 | 33.65427 | 136.01362 | 29424 ft | 372 kts | 226° |
| 2026-05-05 20:05 | 33.63486 | 135.99297 | 29800 ft | 373 kts | 226° |
| 2026-05-05 20:06 | 33.61544 | 135.97232 | 30183 ft | 374 kts | 226° |
| 2026-05-05 20:06 | 33.59602 | 135.95167 | 30514 ft | 375 kts | 226° |
| 2026-05-05 20:06 | 33.57638 | 135.93082 | 30809 ft | 377 kts | 226° |
| 2026-05-05 20:06 | 33.55671 | 135.90993 | 31076 ft | 379 kts | 226° |
| 2026-05-05 20:07 | 33.53687 | 135.88890 | 31369 ft | 381 kts | 226° |
| 2026-05-05 20:07 | 33.51698 | 135.86782 | 31659 ft | 383 kts | 226° |
| 2026-05-05 20:07 | 33.49698 | 135.84663 | 31945 ft | 385 kts | 226° |
| 2026-05-05 20:07 | 33.47728 | 135.82486 | 32224 ft | 385 kts | 229° |
| 2026-05-05 20:08 | 33.45998 | 135.80056 | 32512 ft | 383 kts | 236° |
| 2026-05-05 20:08 | 33.44605 | 135.77340 | 32767 ft | 384 kts | 243° |
| 2026-05-05 20:08 | 33.43578 | 135.74379 | 33042 ft | 387 kts | 250° |
| 2026-05-05 20:08 | 33.42777 | 135.71290 | 33305 ft | 389 kts | 251° |
| 2026-05-05 20:09 | 33.42035 | 135.68161 | 33579 ft | 392 kts | 252° |
| 2026-05-05 20:09 | 33.41317 | 135.65015 | 33835 ft | 393 kts | 252° |
| 2026-05-05 20:09 | 33.40597 | 135.61846 | 34091 ft | 395 kts | 252° |
| 2026-05-05 20:09 | 33.39868 | 135.58666 | 34325 ft | 397 kts | 252° |
| 2026-05-05 20:10 | 33.39133 | 135.55498 | 34644 ft | 396 kts | 252° |
| 2026-05-05 20:10 | 33.38391 | 135.52330 | 34972 ft | 394 kts | 252° |
| 2026-05-05 20:10 | 33.37648 | 135.49180 | 35306 ft | 393 kts | 252° |
| 2026-05-05 20:10 | 33.36901 | 135.46025 | 35664 ft | 392 kts | 252° |
| 2026-05-05 20:11 | 33.36155 | 135.42896 | 36000 ft | 391 kts | 252° |
| 2026-05-05 20:11 | 33.35380 | 135.39786 | 36348 ft | 390 kts | 252° |
| 2026-05-05 20:11 | 33.34575 | 135.36695 | 36707 ft | 389 kts | 252° |
| 2026-05-05 20:11 | 33.33761 | 135.33617 | 37047 ft | 388 kts | 252° |
| 2026-05-05 20:12 | 33.32946 | 135.30541 | 37403 ft | 387 kts | 252° |
| 2026-05-05 20:12 | 33.32139 | 135.27480 | 37767 ft | 386 kts | 252° |
| 2026-05-05 20:12 | 33.31338 | 135.24427 | 38129 ft | 384 kts | 253° |
| 2026-05-05 20:12 | 33.30543 | 135.21387 | 38497 ft | 383 kts | 253° |
| 2026-05-05 20:13 | 33.29762 | 135.18394 | 38839 ft | 381 kts | 253° |
| 2026-05-05 20:13 | 33.28973 | 135.15370 | 39102 ft | 381 kts | 253° |
| 2026-05-05 20:13 | 33.28183 | 135.12348 | 39285 ft | 382 kts | 253° |
| 2026-05-05 20:13 | 33.27390 | 135.09315 | 39452 ft | 383 kts | 253° |
| 2026-05-05 20:14 | 33.26593 | 135.06272 | 39634 ft | 384 kts | 253° |
| 2026-05-05 20:14 | 33.25794 | 135.03222 | 39818 ft | 385 kts | 253° |
| 2026-05-05 20:14 | 33.24993 | 135.00172 | 39997 ft | 386 kts | 253° |
| 2026-05-05 20:14 | 33.24201 | 134.97107 | 40158 ft | 387 kts | 253° |
| 2026-05-05 20:15 | 33.23444 | 134.94020 | 40185 ft | 387 kts | 254° |
| 2026-05-05 20:15 | 33.21974 | 134.87841 | 40185 ft | 387 kts | 254° |
| 2026-05-05 20:16 | 33.20496 | 134.81658 | 40183 ft | 387 kts | 254° |
| 2026-05-05 20:16 | 33.19000 | 134.75481 | 40185 ft | 387 kts | 253° |
| 2026-05-05 20:17 | 33.17492 | 134.69302 | 40184 ft | 388 kts | 253° |
| 2026-05-05 20:17 | 33.15983 | 134.63130 | 40181 ft | 388 kts | 253° |
| 2026-05-05 20:18 | 33.14473 | 134.56953 | 40181 ft | 388 kts | 253° |
| 2026-05-05 20:18 | 33.12957 | 134.50782 | 40179 ft | 388 kts | 253° |
| 2026-05-05 20:19 | 33.11439 | 134.44613 | 40182 ft | 388 kts | 253° |
| 2026-05-05 20:19 | 33.09919 | 134.38447 | 40176 ft | 388 kts | 253° |
| 2026-05-05 20:20 | 33.08394 | 134.32278 | 40176 ft | 388 kts | 253° |
| 2026-05-05 20:20 | 33.06868 | 134.26115 | 40178 ft | 388 kts | 253° |
| 2026-05-05 20:21 | 33.05346 | 134.19941 | 40174 ft | 388 kts | 253° |
| 2026-05-05 20:21 | 33.03853 | 134.13763 | 40173 ft | 388 kts | 253° |
| 2026-05-05 20:22 | 33.02359 | 134.07578 | 40172 ft | 388 kts | 253° |
| 2026-05-05 20:22 | 33.00868 | 134.01437 | 40171 ft | 389 kts | 253° |
| 2026-05-05 20:23 | 32.99359 | 133.95246 | 40170 ft | 389 kts | 253° |
| 2026-05-05 20:23 | 32.97845 | 133.89055 | 40172 ft | 389 kts | 253° |
| 2026-05-05 20:24 | 32.96327 | 133.82861 | 40171 ft | 390 kts | 253° |
| 2026-05-05 20:24 | 32.94805 | 133.76661 | 40173 ft | 390 kts | 253° |
| 2026-05-05 20:25 | 32.93279 | 133.70464 | 40170 ft | 390 kts | 253° |
| 2026-05-05 20:25 | 32.91749 | 133.64262 | 40165 ft | 391 kts | 253° |
| 2026-05-05 20:26 | 32.90214 | 133.58056 | 40166 ft | 391 kts | 253° |
| 2026-05-05 20:26 | 32.88681 | 133.51853 | 40161 ft | 391 kts | 253° |
| 2026-05-05 20:27 | 32.87139 | 133.45651 | 40165 ft | 391 kts | 253° |
| 2026-05-05 20:27 | 32.85591 | 133.39446 | 40168 ft | 391 kts | 253° |
| 2026-05-05 20:28 | 32.84041 | 133.33241 | 40169 ft | 391 kts | 253° |
| 2026-05-05 20:28 | 32.82488 | 133.27036 | 40169 ft | 392 kts | 253° |
| 2026-05-05 20:29 | 32.80931 | 133.20828 | 40165 ft | 392 kts | 253° |
| 2026-05-05 20:29 | 32.79369 | 133.14614 | 40167 ft | 392 kts | 253° |
| 2026-05-05 20:30 | 32.77803 | 133.08403 | 40163 ft | 392 kts | 253° |
| 2026-05-05 20:30 | 32.76222 | 133.02197 | 40163 ft | 393 kts | 251° |
| 2026-05-05 20:31 | 32.74010 | 132.96273 | 40162 ft | 393 kts | 244° |
| 2026-05-05 20:31 | 32.71402 | 132.90554 | 40163 ft | 394 kts | 243° |
| 2026-05-05 20:32 | 32.68732 | 132.84873 | 40161 ft | 394 kts | 243° |
| 2026-05-05 20:32 | 32.66058 | 132.79185 | 40160 ft | 395 kts | 243° |
| 2026-05-05 20:33 | 32.63392 | 132.73494 | 40160 ft | 395 kts | 243° |
| 2026-05-05 20:33 | 32.60746 | 132.67842 | 40157 ft | 395 kts | 243° |
| 2026-05-05 20:34 | 32.58080 | 132.62152 | 40150 ft | 395 kts | 243° |
| 2026-05-05 20:34 | 32.55410 | 132.56468 | 40154 ft | 394 kts | 243° |
| 2026-05-05 20:35 | 32.52742 | 132.50793 | 40149 ft | 394 kts | 243° |
| 2026-05-05 20:35 | 32.50069 | 132.45120 | 40151 ft | 394 kts | 243° |
| 2026-05-05 20:36 | 32.47406 | 132.39474 | 40150 ft | 394 kts | 242° |
| 2026-05-05 20:36 | 32.44720 | 132.33791 | 40150 ft | 394 kts | 242° |
| 2026-05-05 20:37 | 32.42060 | 132.28170 | 40154 ft | 394 kts | 242° |
| 2026-05-05 20:37 | 32.39381 | 132.22517 | 40150 ft | 394 kts | 242° |
| 2026-05-05 20:38 | 32.36699 | 132.16868 | 40150 ft | 394 kts | 242° |
| 2026-05-05 20:38 | 32.34015 | 132.11222 | 40148 ft | 394 kts | 242° |
| 2026-05-05 20:39 | 32.31329 | 132.05581 | 40148 ft | 394 kts | 242° |
| 2026-05-05 20:39 | 32.28641 | 131.99944 | 40151 ft | 394 kts | 242° |
| 2026-05-05 20:40 | 32.25945 | 131.94300 | 40144 ft | 394 kts | 242° |
| 2026-05-05 20:40 | 32.23246 | 131.88657 | 40146 ft | 395 kts | 242° |
| 2026-05-05 20:41 | 32.20543 | 131.83015 | 40145 ft | 395 kts | 242° |
| 2026-05-05 20:41 | 32.17834 | 131.77368 | 40148 ft | 395 kts | 242° |
| 2026-05-05 20:42 | 32.15121 | 131.71722 | 40153 ft | 396 kts | 242° |
| 2026-05-05 20:42 | 32.12398 | 131.66065 | 40149 ft | 397 kts | 242° |
| 2026-05-05 20:43 | 32.09673 | 131.60411 | 40144 ft | 397 kts | 242° |
| 2026-05-05 20:43 | 32.06939 | 131.54748 | 40138 ft | 397 kts | 242° |
| 2026-05-05 20:44 | 32.04201 | 131.49085 | 40135 ft | 398 kts | 242° |
| 2026-05-05 20:44 | 32.01496 | 131.43498 | 40133 ft | 398 kts | 242° |
| 2026-05-05 20:45 | 31.97331 | 131.34912 | 40133 ft | 399 kts | 242° |
| 2026-05-05 20:45 | 31.94592 | 131.29276 | 40135 ft | 399 kts | 242° |
| 2026-05-05 20:46 | 31.91830 | 131.23603 | 40141 ft | 400 kts | 242° |
| 2026-05-05 20:46 | 31.89064 | 131.17925 | 40144 ft | 400 kts | 242° |
| 2026-05-05 20:47 | 31.86293 | 131.12253 | 40146 ft | 400 kts | 242° |
| 2026-05-05 20:47 | 31.83521 | 131.06585 | 40149 ft | 399 kts | 242° |
| 2026-05-05 20:48 | 31.80752 | 131.00931 | 40145 ft | 399 kts | 242° |
| 2026-05-05 20:48 | 31.77990 | 130.95298 | 40143 ft | 397 kts | 242° |
| 2026-05-05 20:49 | 31.75696 | 130.90628 | 40141 ft | 396 kts | 241° |
| 2026-05-05 20:49 | 31.72940 | 130.85024 | 40137 ft | 396 kts | 241° |
| 2026-05-05 20:50 | 31.70185 | 130.79430 | 40133 ft | 396 kts | 241° |
| 2026-05-05 20:50 | 31.67427 | 130.73839 | 40128 ft | 395 kts | 241° |
| 2026-05-05 20:51 | 31.64669 | 130.68254 | 40127 ft | 395 kts | 241° |
| 2026-05-05 20:51 | 31.61909 | 130.62676 | 40119 ft | 395 kts | 241° |
| 2026-05-05 20:52 | 31.59147 | 130.57100 | 40115 ft | 395 kts | 241° |
| 2026-05-05 20:52 | 31.56382 | 130.51526 | 40112 ft | 396 kts | 241° |
| 2026-05-05 20:53 | 31.53650 | 130.46026 | 40113 ft | 396 kts | 241° |
| 2026-05-05 20:53 | 31.50840 | 130.40377 | 40111 ft | 396 kts | 241° |
| 2026-05-05 20:54 | 31.48062 | 130.34804 | 40106 ft | 396 kts | 241° |
| 2026-05-05 20:54 | 31.45279 | 130.29230 | 40105 ft | 397 kts | 241° |
| 2026-05-05 20:55 | 31.42510 | 130.23691 | 40104 ft | 397 kts | 241° |
| 2026-05-05 20:55 | 31.39718 | 130.18115 | 40101 ft | 397 kts | 240° |
| 2026-05-05 20:56 | 31.36922 | 130.12537 | 40104 ft | 397 kts | 240° |
| 2026-05-05 20:56 | 31.34123 | 130.06960 | 40098 ft | 397 kts | 240° |
| 2026-05-05 20:57 | 31.31323 | 130.01389 | 40096 ft | 397 kts | 240° |
| 2026-05-05 20:57 | 31.28397 | 129.95908 | 40097 ft | 398 kts | 235° |
| 2026-05-05 20:58 | 31.25055 | 129.90742 | 40094 ft | 399 kts | 234° |
| 2026-05-05 20:58 | 31.21641 | 129.85638 | 40094 ft | 399 kts | 234° |
| 2026-05-05 20:59 | 31.18214 | 129.80541 | 40106 ft | 399 kts | 234° |
| 2026-05-05 20:59 | 31.14794 | 129.75444 | 40091 ft | 399 kts | 234° |
| 2026-05-05 21:00 | 31.11372 | 129.70342 | 40085 ft | 399 kts | 234° |
| 2026-05-05 21:00 | 31.07950 | 129.65243 | 40094 ft | 399 kts | 234° |
| 2026-05-05 21:01 | 31.04523 | 129.60144 | 40084 ft | 399 kts | 234° |
| 2026-05-05 21:01 | 31.01092 | 129.55046 | 40090 ft | 400 kts | 234° |
| 2026-05-05 21:02 | 30.97656 | 129.49949 | 40088 ft | 400 kts | 234° |
| 2026-05-05 21:02 | 30.94218 | 129.44855 | 40090 ft | 400 kts | 234° |
| 2026-05-05 21:03 | 30.90778 | 129.39764 | 40091 ft | 400 kts | 234° |
| 2026-05-05 21:03 | 30.87330 | 129.34667 | 40089 ft | 401 kts | 234° |
| 2026-05-05 21:04 | 30.83872 | 129.29562 | 40087 ft | 402 kts | 234° |
| 2026-05-05 21:04 | 30.80431 | 129.24491 | 40086 ft | 402 kts | 234° |
| 2026-05-05 21:05 | 30.76964 | 129.19385 | 40087 ft | 402 kts | 234° |
| 2026-05-05 21:05 | 30.73553 | 129.14230 | 40089 ft | 402 kts | 234° |
| 2026-05-05 21:06 | 30.70175 | 129.09047 | 40087 ft | 402 kts | 234° |
| 2026-05-05 21:06 | 30.66784 | 129.03866 | 40087 ft | 403 kts | 234° |
| 2026-05-05 21:07 | 30.63385 | 128.98699 | 40087 ft | 403 kts | 234° |
| 2026-05-05 21:07 | 30.59974 | 128.93527 | 40088 ft | 403 kts | 234° |
| 2026-05-05 21:08 | 30.56560 | 128.88359 | 40088 ft | 404 kts | 234° |
| 2026-05-05 21:08 | 30.53140 | 128.83188 | 40089 ft | 404 kts | 234° |
| 2026-05-05 21:09 | 30.49717 | 128.78016 | 40087 ft | 404 kts | 234° |
| 2026-05-05 21:09 | 30.46287 | 128.72843 | 40087 ft | 405 kts | 234° |
| 2026-05-05 21:10 | 30.42852 | 128.67669 | 40084 ft | 405 kts | 234° |
| 2026-05-05 21:10 | 30.39414 | 128.62496 | 40085 ft | 405 kts | 234° |
| 2026-05-05 21:11 | 30.35972 | 128.57326 | 40081 ft | 405 kts | 234° |
| 2026-05-05 21:11 | 30.32530 | 128.52160 | 40083 ft | 405 kts | 234° |
| 2026-05-05 21:12 | 30.29089 | 128.47002 | 40085 ft | 405 kts | 234° |